Map

Track Data

SID SEASON NUMBER BASIN SUBBASIN NAME ISO_TIME NATURE LAT LON WMO_WIND WMO_PRES WMO_AGENCY TRACK_TYPE DIST2LAND LANDFALL IFLAG USA_AGENCY USA_ATCF_ID USA_LAT USA_LON USA_RECORD USA_STATUS USA_WIND USA_PRES USA_SSHS USA_R34_NE USA_R34_SE USA_R34_SW USA_R34_NW USA_R50_NE USA_R50_SE USA_R50_SW USA_R50_NW USA_R64_NE USA_R64_SE USA_R64_SW USA_R64_NW USA_POCI USA_ROCI USA_RMW USA_EYE TOKYO_LAT TOKYO_LON TOKYO_GRADE TOKYO_WIND TOKYO_PRES TOKYO_R50_DIR TOKYO_R50_LONG TOKYO_R50_SHORT TOKYO_R30_DIR TOKYO_R30_LONG TOKYO_R30_SHORT TOKYO_LAND CMA_LAT CMA_LON CMA_CAT CMA_WIND CMA_PRES HKO_LAT HKO_LON HKO_CAT HKO_WIND HKO_PRES NEWDELHI_LAT NEWDELHI_LON NEWDELHI_GRADE NEWDELHI_WIND NEWDELHI_PRES NEWDELHI_CI NEWDELHI_DP NEWDELHI_POCI REUNION_LAT REUNION_LON REUNION_TYPE REUNION_WIND REUNION_PRES REUNION_TNUM REUNION_CI REUNION_RMW REUNION_R34_NE REUNION_R34_SE REUNION_R34_SW REUNION_R34_NW REUNION_R50_NE REUNION_R50_SE REUNION_R50_SW REUNION_R50_NW REUNION_R64_NE REUNION_R64_SE REUNION_R64_SW REUNION_R64_NW BOM_LAT BOM_LON BOM_TYPE BOM_WIND BOM_PRES BOM_TNUM BOM_CI BOM_RMW BOM_R34_NE BOM_R34_SE BOM_R34_SW BOM_R34_NW BOM_R50_NE BOM_R50_SE BOM_R50_SW BOM_R50_NW BOM_R64_NE BOM_R64_SE BOM_R64_SW BOM_R64_NW BOM_ROCI BOM_POCI BOM_EYE BOM_POS_METHOD BOM_PRES_METHOD NADI_LAT NADI_LON NADI_CAT NADI_WIND NADI_PRES WELLINGTON_LAT WELLINGTON_LON WELLINGTON_WIND WELLINGTON_PRES DS824_LAT DS824_LON DS824_STAGE DS824_WIND DS824_PRES TD9636_LAT TD9636_LON TD9636_STAGE TD9636_WIND TD9636_PRES TD9635_LAT TD9635_LON TD9635_WIND TD9635_PRES TD9635_ROCI NEUMANN_LAT NEUMANN_LON NEUMANN_CLASS NEUMANN_WIND NEUMANN_PRES MLC_LAT MLC_LON MLC_CLASS MLC_WIND MLC_PRES USA_GUST BOM_GUST BOM_GUST_PER REUNION_GUST REUNION_GUST_PER USA_SEAHGT USA_SEARAD_NE USA_SEARAD_SE USA_SEARAD_SW USA_SEARAD_NW STORM_SPEED STORM_DIR
1899344S10066 1900 51 SI MM NOT_NAMED 1899-12-10 00:00:00 TS -10.0000 66.3000 main 1459 1438 _________O____ -1 -10.0000 66.3000 TC 6 261
1899344S10066 1900 51 SI MM NOT_NAMED 1899-12-10 03:00:00 TS -10.0475 66.0075 main 1438 1410 _________P____ -1 -10.0475 66.0075 TC 6 260
1899344S10066 1900 51 SI MM NOT_NAMED 1899-12-10 06:00:00 TS -10.1000 65.7000 main 1410 1381 _________O____ -1 -10.1000 65.7000 TC 6 260
1899344S10066 1900 51 SI MM NOT_NAMED 1899-12-10 09:00:00 TS -10.1575 65.3650 main 1381 1356 _________P____ -1 -10.1575 65.3650 TC 7 262
1899344S10066 1900 51 SI MM NOT_NAMED 1899-12-10 12:00:00 TS -10.2000 65.0000 main 1356 1332 _________O____ -1 -10.2000 65.0000 TC 8 267
1899344S10066 1900 51 SI MM NOT_NAMED 1899-12-10 15:00:00 TS -10.2000 64.5999 main 1332 1309 _________P____ -1 -10.2000 64.5999 TC 8 270
1899344S10066 1900 51 SI MM NOT_NAMED 1899-12-10 18:00:00 TS -10.2000 64.2000 main 1309 1292 _________O____ -1 -10.2000 64.2000 TC 8 267
1899344S10066 1900 51 SI MM NOT_NAMED 1899-12-10 21:00:00 TS -10.2425 63.8350 main 1286 1260 _________P____ -1 -10.2425 63.8350 TC 7 262
1899344S10066 1900 51 SI MM NOT_NAMED 1899-12-11 00:00:00 TS -10.3000 63.5000 main 1260 1245 _________O____ -1 -10.3000 63.5000 TC 6 260
1899344S10066 1900 51 SI MM NOT_NAMED 1899-12-11 03:00:00 TS -10.3499 63.2000 main 1245 1220 _________P____ -1 -10.3499 63.2000 TC 6 260
1899344S10066 1900 51 SI MM NOT_NAMED 1899-12-11 06:00:00 TS -10.4000 62.9000 main 1220 1195 _________O____ -1 -10.4000 62.9000 TC 6 260
1899344S10066 1900 51 SI MM NOT_NAMED 1899-12-11 09:00:00 TS -10.4575 62.5575 main 1195 1177 _________P____ -1 -10.4575 62.5575 TC 7 262
1899344S10066 1900 51 SI MM NOT_NAMED 1899-12-11 12:00:00 TS -10.5000 62.2000 main 1177 1164 _________O____ -1 -10.5000 62.2000 TC 7 267
1899344S10066 1900 51 SI MM NOT_NAMED 1899-12-11 15:00:00 TS -10.5000 61.8499 main 1160 1149 _________P____ -1 -10.5000 61.8499 TC 7 270
1899344S10066 1900 51 SI MM NOT_NAMED 1899-12-11 18:00:00 TS -10.5000 61.5000 main 1149 1138 _________O____ -1 -10.5000 61.5000 TC 7 266
1899344S10066 1900 51 SI MM NOT_NAMED 1899-12-11 21:00:00 TS -10.5424 61.1575 main 1138 1113 _________P____ -1 -10.5424 61.1575 TC 7 262
1899344S10066 1900 51 SI MM NOT_NAMED 1899-12-12 00:00:00 TS -10.6000 60.8000 main 1113 1101 _________O____ -1 -10.6000 60.8000 TC 8 262
1899344S10066 1900 51 SI MM NOT_NAMED 1899-12-12 03:00:00 TS -10.6500 60.4000 main 1101 1080 _________P____ -1 -10.6500 60.4000 TC 8 263
1899344S10066 1900 51 SI MM NOT_NAMED 1899-12-12 06:00:00 TS -10.7000 60.0000 main 1080 1073 _________O____ -1 -10.7000 60.0000 TC 7 262
1899344S10066 1900 51 SI MM NOT_NAMED 1899-12-12 09:00:00 TS -10.7499 59.6500 main 1071 1052 _________P____ -1 -10.7499 59.6500 TC 7 262
1899344S10066 1900 51 SI MM NOT_NAMED 1899-12-12 12:00:00 TS -10.8000 59.3000 main 1052 1010 _________O____ -1 -10.8000 59.3000 TC 7 262
1899344S10066 1900 51 SI MM NOT_NAMED 1899-12-12 15:00:00 TS -10.8499 58.9150 main 1010 965 _________P____ -1 -10.8499 58.9150 TC 8 263
1899344S10066 1900 51 SI MM NOT_NAMED 1899-12-12 18:00:00 TS -10.9000 58.5000 main 965 923 _________O____ -1 -10.9000 58.5000 TC 8 263
1899344S10066 1900 51 SI MM NOT_NAMED 1899-12-12 21:00:00 TS -10.9498 58.0875 main 923 867 _________P____ -1 -10.9498 58.0875 TC 9 264
1899344S10066 1900 51 SI MM NOT_NAMED 1899-12-13 00:00:00 TS -11.0000 57.6000 main 867 804 _________O____ -1 -11.0000 57.6000 TC 11 265
1899344S10066 1900 51 SI MM NOT_NAMED 1899-12-13 03:00:00 TS -11.0500 56.9800 main 801 728 _________P____ -1 -11.0500 56.9800 TC 13 266
1899344S10066 1900 51 SI MM NOT_NAMED 1899-12-13 06:00:00 TS -11.1000 56.3000 main 728 652 _________O____ -1 -11.1000 56.3000 TC 14 265
1899344S10066 1900 51 SI MM NOT_NAMED 1899-12-13 09:00:00 TS -11.1576 55.6051 main 652 590 _________P____ -1 -11.1576 55.6051 TC 13 266
1899344S10066 1900 51 SI MM NOT_NAMED 1899-12-13 12:00:00 TS -11.2000 55.0000 main 590 549 _________O____ -1 -11.2000 55.0000 TC 10 268
1899344S10066 1900 51 SI MM NOT_NAMED 1899-12-13 15:00:00 TS -11.1998 54.6049 main 549 519 _________P____ -1 -11.1998 54.6049 TC 7 270
1899344S10066 1900 51 SI MM NOT_NAMED 1899-12-13 18:00:00 TS -11.2000 54.3000 main 519 489 _________O____ -1 -11.2000 54.3000 TC 6 267
1899344S10066 1900 51 SI MM NOT_NAMED 1899-12-13 21:00:00 TS -11.2348 53.9949 main 489 445 _________P____ -1 -11.2348 53.9949 TC 7 262
1899344S10066 1900 51 SI MM NOT_NAMED 1899-12-14 00:00:00 TS -11.3000 53.6000 main 445 381 _________O____ -1 -11.3000 53.6000 TC 10 261
1899344S10066 1900 51 SI MM NOT_NAMED 1899-12-14 03:00:00 TS -11.3927 52.9875 main 381 310 _________P____ -1 -11.3927 52.9875 TC 13 261
1899344S10066 1900 51 SI MM NOT_NAMED 1899-12-14 06:00:00 TS -11.5000 52.3000 main 310 250 _________O____ -1 -11.5000 52.3000 TC 13 261
1899344S10066 1900 51 SI MM NOT_NAMED 1899-12-14 09:00:00 TS -11.5998 51.6925 main 250 193 _________P____ -1 -11.5998 51.6925 TC 12 260
1899344S10066 1900 51 SI MM NOT_NAMED 1899-12-14 12:00:00 TS -11.7000 51.1000 main 193 127 _________O____ -1 -11.7000 51.1000 TC 12 260
1899344S10066 1900 51 SI MM NOT_NAMED 1899-12-14 15:00:00 TS -11.8073 50.5075 main 127 63 _________P____ -1 -11.8073 50.5075 TC 12 260
1899344S10066 1900 51 SI MM NOT_NAMED 1899-12-14 18:00:00 TS -11.9000 49.9000 main 63 11 _________O____ -1 -11.9000 49.9000 TC 13 263
1899344S10066 1900 51 SI MM NOT_NAMED 1899-12-14 21:00:00 TS -11.9575 49.2350 main 11 11 _________P____ -1 -11.9575 49.2350 TC 13 266
1899344S10066 1900 51 SI MM NOT_NAMED 1899-12-15 00:00:00 TS -12.0000 48.6000 main 54 54 _________O____ -1 -12.0000 48.6000 TC 11 265
1899344S10066 1900 51 SI MM NOT_NAMED 1899-12-15 03:00:00 TS -12.0498 48.0700 main 94 94 _________P____ -1 -12.0498 48.0700 TC 10 264
1899344S10066 1900 51 SI MM NOT_NAMED 1899-12-15 06:00:00 TS -12.1000 47.6000 main 137 137 _________O____ -1 -12.1000 47.6000 TC 9 264
1899344S10066 1900 51 SI MM NOT_NAMED 1899-12-15 09:00:00 TS -12.1424 47.1424 main 190 184 _________P____ -1 -12.1424 47.1424 TC 9 264
1899344S10066 1900 51 SI MM NOT_NAMED 1899-12-15 12:00:00 TS -12.2000 46.7000 main 210 210 _________O____ -1 -12.2000 46.7000 TC 9 260
1899344S10066 1900 51 SI MM NOT_NAMED 1899-12-15 15:00:00 TS -12.2924 46.2500 main 233 233 _________P____ -1 -12.2924 46.2500 TC 9 257
1899344S10066 1900 51 SI MM NOT_NAMED 1899-12-15 18:00:00 TS -12.4000 45.8000 main 270 270 _________O____ -1 -12.4000 45.8000 TC 9 257
1899344S10066 1900 51 SI MM NOT_NAMED 1899-12-15 21:00:00 TS -12.4924 45.3499 main 312 312 _________P____ -1 -12.4924 45.3499 TC 9 257
1899344S10066 1900 51 SI MM NOT_NAMED 1899-12-16 00:00:00 TS -12.6000 44.9000 main 347 347 _________O____ -1 -12.6000 44.9000 TC 9 254
1899344S10066 1900 51 SI MM NOT_NAMED 1899-12-16 03:00:00 TS -12.7425 44.4425 main 377 363 _________P____ -1 -12.7425 44.4425 TC 9 251
1899344S10066 1900 51 SI MM NOT_NAMED 1899-12-16 06:00:00 TS -12.9000 44.0000 main 366 326 _________O____ -1 -12.9000 44.0000 TC 9 251
1899344S10066 1900 51 SI MM NOT_NAMED 1899-12-16 09:00:00 TS -13.0349 43.5924 main 326 282 _________P____ -1 -13.0349 43.5924 TC 8 249
1899344S10066 1900 51 SI MM NOT_NAMED 1899-12-16 12:00:00 TS -13.2000 43.2000 main 282 238 _________O____ -1 -13.2000 43.2000 TC 9 243
1899344S10066 1900 51 SI MM NOT_NAMED 1899-12-16 15:00:00 TS -13.4275 42.7925 main 238 194 _________P____ -1 -13.4275 42.7925 TC 9 237
1899344S10066 1900 51 SI MM NOT_NAMED 1899-12-16 18:00:00 TS -13.7000 42.4000 main 194 140 _________O____ -1 -13.7000 42.4000 TC 9 233
1899344S10066 1900 51 SI MM NOT_NAMED 1899-12-16 21:00:00 TS -13.9850 42.0275 main 140 99 _________P____ -1 -13.9850 42.0275 TC 9 229
1899344S10066 1900 51 SI MM NOT_NAMED 1899-12-17 00:00:00 TS -14.3000 41.7000 main 99 64 _________O____ -1 -14.3000 41.7000 TC 9 222
1899344S10066 1900 51 SI MM NOT_NAMED 1899-12-17 03:00:00 TS -14.6350 41.4199 main 64 42 _________P____ -1 -14.6350 41.4199 TC 9 215
1899344S10066 1900 51 SI MM NOT_NAMED 1899-12-17 06:00:00 TS -15.0000 41.2000 main 42 34 _________O____ -1 -15.0000 41.2000 TC 8 207
1899344S10066 1900 51 SI MM NOT_NAMED 1899-12-17 09:00:00 TS -15.3850 41.0274 main 42 39 _________P____ -1 -15.3850 41.0274 TC 9 200
1899344S10066 1900 51 SI MM NOT_NAMED 1899-12-17 12:00:00 TS -15.8000 40.9000 main 54 54 _________O____ -1 -15.8000 40.9000 TC 9 195
1899344S10066 1900 51 SI MM NOT_NAMED 1899-12-17 15:00:00 TS -16.2425 40.7850 main 69 69 _________P____ -1 -16.2425 40.7850 TC 9 192
1899344S10066 1900 51 SI MM NOT_NAMED 1899-12-17 18:00:00 TS -16.7000 40.7000 main 93 93 _________O____ -1 -16.7000 40.7000 TC 9 190
1899344S10066 1900 51 SI MM NOT_NAMED 1899-12-17 21:00:00 TS -17.1425 40.6201 main 108 108 _________P____ -1 -17.1425 40.6201 TC 9 186
1899344S10066 1900 51 SI MM NOT_NAMED 1899-12-18 00:00:00 TS -17.6000 40.6000 main 149 149 _________O____ -1 -17.6000 40.6000 TC 10 177
1899344S10066 1900 51 SI MM NOT_NAMED 1899-12-18 03:00:00 TS -18.1000 40.6625 main 202 202 _________P____ -1 -18.1000 40.6625 TC 10 169
1899344S10066 1900 51 SI MM NOT_NAMED 1899-12-18 06:00:00 TS -18.6000 40.8000 main 253 253 _________O____ -1 -18.6000 40.8000 TC 10 163
1899344S10066 1900 51 SI MM NOT_NAMED 1899-12-18 09:00:00 TS -19.0725 40.9775 main 309 309 _________P____ -1 -19.0725 40.9775 TC 10 157
1899344S10066 1900 51 SI MM NOT_NAMED 1899-12-18 12:00:00 TS -19.5000 41.2000 main 317 275 _________O____ -1 -19.5000 41.2000 TC 9 151
1899344S10066 1900 51 SI MM NOT_NAMED 1899-12-18 15:00:00 TS -19.8725 41.4426 main 275 230 _________P____ -1 -19.8725 41.4426 TC 8 146
1899344S10066 1900 51 SI MM NOT_NAMED 1899-12-18 18:00:00 TS -20.2000 41.7000 main 230 194 _________O____ -1 -20.2000 41.7000 TC 8 144
1899344S10066 1900 51 SI MM NOT_NAMED 1899-12-18 21:00:00 TS -20.4998 41.9278 main 194 150 _________P____ -1 -20.4998 41.9278 TC 8 142
1899344S10066 1900 51 SI MM NOT_NAMED 1899-12-19 00:00:00 TS -20.8000 42.2000 main 150 99 _________O____ -1 -20.8000 42.2000 TC 9 137
1899344S10066 1900 51 SI MM NOT_NAMED 1899-12-19 03:00:00 TS -21.1425 42.5775 main 99 51 _________P____ -1 -21.1425 42.5775 TC 10 133
1899344S10066 1900 51 SI MM NOT_NAMED 1899-12-19 06:00:00 TS -21.5000 43.0000 main 51 0 _________O____ -1 -21.5000 43.0000 TC 11 133
1899344S10066 1900 51 SI MM NOT_NAMED 1899-12-19 09:00:00 TS -21.8574 43.4001 main 0 0 _________P____ -1 -21.8574 43.4001 TC 10 133
1899344S10066 1900 51 SI MM NOT_NAMED 1899-12-19 12:00:00 TS -22.2000 43.8000 main 0 0 _________O____ -1 -22.2000 43.8000 TC 10 132
1899344S10066 1900 51 SI MM NOT_NAMED 1899-12-19 15:00:00 TS -22.5149 44.2002 main 0 0 _________P____ -1 -22.5149 44.2002 TC 10 129
1899344S10066 1900 51 SI MM NOT_NAMED 1899-12-19 18:00:00 TS -22.8000 44.6000 main 0 0 _________O____ -1 -22.8000 44.6000 TC 9 126
1899344S10066 1900 51 SI MM NOT_NAMED 1899-12-19 21:00:00 TS -23.0423 44.9929 main 0 0 _________P____ -1 -23.0423 44.9929 TC 9 124
1899344S10066 1900 51 SI MM NOT_NAMED 1899-12-20 00:00:00 TS -23.3000 45.4000 main 0 0 _________O____ -1 -23.3000 45.4000 TC 10 128
1899344S10066 1900 51 SI MM NOT_NAMED 1899-12-20 03:00:00 TS -23.6424 45.8350 main 0 0 _________P____ -1 -23.6424 45.8350 TC 11 130
1899344S10066 1900 51 SI MM NOT_NAMED 1899-12-20 06:00:00 TS -24.0000 46.3000 main 0 0 _________O____ -1 -24.0000 46.3000 TC 11 127
1899344S10066 1900 51 SI MM NOT_NAMED 1899-12-20 09:00:00 TS -24.3075 46.8002 main 0 0 _________P____ -1 -24.3075 46.8002 TC 11 123
1899344S10066 1900 51 SI MM NOT_NAMED 1899-12-20 12:00:00 TS -24.6000 47.3000 main 10 10 _________O____ -1 -24.6000 47.3000 TC 10 124
1899344S10066 1900 51 SI MM NOT_NAMED 1899-12-20 15:00:00 TS -24.8997 47.7503 main 64 64 _________P____ -1 -24.8997 47.7503 TC 10 126
1899344S10066 1900 51 SI MM NOT_NAMED 1899-12-20 18:00:00 TS -25.2000 48.2000 main 112 112 _________O____ -1 -25.2000 48.2000 TC 10 125
1899344S10066 1900 51 SI MM NOT_NAMED 1899-12-20 21:00:00 TS -25.4999 48.6927 main 170 170 _________P____ -1 -25.4999 48.6927 TC 11 124
1899344S10066 1900 51 SI MM NOT_NAMED 1899-12-21 00:00:00 TS -25.8000 49.2000 main 228 228 _________O____ -1 -25.8000 49.2000 TC 11 123
1899344S10066 1900 51 SI MM NOT_NAMED 1899-12-21 03:00:00 TS -26.0998 49.7003 main 288 288 _________P____ -1 -26.0998 49.7003 TC 11 124
1899344S10066 1900 51 SI MM NOT_NAMED 1899-12-21 06:00:00 TS -26.4000 50.2000 main 347 347 _________O____ -1 -26.4000 50.2000 TC 11 124
1899344S10066 1900 51 SI MM NOT_NAMED 1899-12-21 09:00:00 TS -26.7074 50.7076 main 406 406 _________P____ -1 -26.7074 50.7076 TC 11 124
1899344S10066 1900 51 SI MM NOT_NAMED 1899-12-21 12:00:00 TS -27.0000 51.2000 main 466 466 _________O____ -1 -27.0000 51.2000 TC 10 123
1899344S10066 1900 51 SI MM NOT_NAMED 1899-12-21 15:00:00 TS -27.2573 51.6578 main 525 525 _________P____ -1 -27.2573 51.6578 TC 9 122
1899344S10066 1900 51 SI MM NOT_NAMED 1899-12-21 18:00:00 TS -27.5000 52.1000 main 571 571 _________O____ -1 -27.5000 52.1000 TC 9 122
1899344S10066 1900 51 SI MM NOT_NAMED 1899-12-21 21:00:00 TS -27.7345 52.5207 main 616 616 _________P____ -1 -27.7345 52.5207 TC 9 122
1899344S10066 1900 51 SI MM NOT_NAMED 1899-12-22 00:00:00 TS -28.0000 53.0000 main 675 675 _________O____ -1 -28.0000 53.0000 TC 11 121
1899344S10066 1900 51 SI MM NOT_NAMED 1899-12-22 03:00:00 TS -28.3277 53.6275 main 743 743 _________P____ -1 -28.3277 53.6275 TC 13 121
1899344S10066 1900 51 SI MM NOT_NAMED 1899-12-22 06:00:00 TS -28.7000 54.3000 main 824 824 _________O____ -1 -28.7000 54.3000 TC 13 125
1899344S10066 1900 51 SI MM NOT_NAMED 1899-12-22 09:00:00 TS -29.0992 54.8781 main 863 863 _________P____ -1 -29.0992 54.8781 TC 13 127
1899344S10066 1900 51 SI MM NOT_NAMED 1899-12-22 12:00:00 TS -29.5000 55.5000 main 904 904 _________O____ -1 -29.5000 55.5000 TC 14 122
1899344S10066 1900 51 SI MM NOT_NAMED 1899-12-22 15:00:00 TS -29.8650 56.2702 main 952 952 _________P____ -1 -29.8650 56.2702 TC 16 117
1899344S10066 1900 51 SI MM NOT_NAMED 1899-12-22 18:00:00 TS -30.2000 57.1000 main 994 994 _________O____ -1 -30.2000 57.1000 TC 16 114
1899344S10066 1900 51 SI MM NOT_NAMED 1899-12-22 21:00:00 TS -30.5082 57.9092 main 1042 1042 _________P____ -1 -30.5082 57.9092 TC 15 114
1899344S10066 1900 51 SI MM NOT_NAMED 1899-12-23 00:00:00 TS -30.8000 58.7000 main 1094 _________O____ -1 -30.8000 58.7000 TC 15 113

About IBTrACS Database

This database is a web-friendly format of International Best Track Archive for Climate Stewardship (IBTrACS), a global best track data archive curated by NOAA dating back to 1842.

Updated: 2021-12-06